createdAt,value
2019-03-02T00:00:02.270Z,100269.90
2019-03-02T00:03:06.805Z,100272.45
2019-03-02T00:06:09.868Z,100268.50
2019-03-02T00:09:13.010Z,100273.20
2019-03-02T00:12:16.287Z,100272.02
2019-03-02T00:15:19.247Z,100267.63
2019-03-02T00:18:22.208Z,100255.33
2019-03-02T00:21:27.599Z,100252.25
2019-03-02T00:24:30.587Z,100253.44
2019-03-02T00:27:33.562Z,100252.30
2019-03-02T00:30:36.523Z,100255.85
2019-03-02T00:33:39.469Z,100256.30
2019-03-02T00:36:42.676Z,100254.89
2019-03-02T00:39:45.639Z,100257.17
2019-03-02T00:42:48.809Z,100261.08
2019-03-02T00:45:53.454Z,100259.41
2019-03-02T00:48:56.407Z,100246.80
2019-03-02T00:52:00.008Z,100240.58
2019-03-02T00:55:03.369Z,100242.73
2019-03-02T00:58:08.080Z,100248.75
2019-03-02T01:01:11.290Z,100244.40
2019-03-02T01:04:14.360Z,100243.92
2019-03-02T01:07:20.808Z,100239.48
2019-03-02T01:10:23.629Z,100236.15
2019-03-02T01:13:26.663Z,100234.70
2019-03-02T01:16:30.014Z,100230.70
2019-03-02T01:19:33.871Z,100231.72
2019-03-02T01:22:38.001Z,100229.08
2019-03-02T01:25:41.784Z,100221.58
2019-03-02T01:28:45.383Z,100219.82
2019-03-02T01:31:48.408Z,100215.05
2019-03-02T01:34:51.350Z,100207.48
2019-03-02T01:37:54.889Z,100198.27
2019-03-02T01:40:58.313Z,100214.07
2019-03-02T01:44:01.354Z,100210.13
2019-03-02T01:47:04.585Z,100207.05
2019-03-02T01:50:11.997Z,100207.14
2019-03-02T01:53:15.555Z,100199.59
2019-03-02T01:56:18.494Z,100197.93
2019-03-02T01:59:22.392Z,100186.52
2019-03-02T02:02:25.330Z,100184.71
2019-03-02T02:05:31.884Z,100189.01
2019-03-02T02:08:34.114Z,100186.52
2019-03-02T02:11:37.716Z,100188.75
2019-03-02T02:14:41.529Z,100184.37
2019-03-02T02:17:44.746Z,100184.94
2019-03-02T02:20:50.329Z,100170.72
2019-03-02T02:23:52.931Z,100178.17
2019-03-02T02:26:56.152Z,100173.69
2019-03-02T02:29:59.687Z,100170.19
2019-03-02T02:33:05.452Z,100163.25
2019-03-02T02:36:08.070Z,100160.62
2019-03-02T02:39:15.447Z,100161.02
2019-03-02T02:42:18.922Z,100162.03
2019-03-02T02:45:22.221Z,100130.98
2019-03-02T02:48:30.995Z,100156.42
2019-03-02T02:51:32.001Z,100151.41
2019-03-02T02:54:34.958Z,100144.97
2019-03-02T02:57:38.326Z,100139.31
2019-03-02T03:00:43.069Z,100147.45
2019-03-02T03:03:46.323Z,100145.20
2019-03-02T03:06:49.333Z,100142.97
2019-03-02T03:09:57.805Z,100136.16
2019-03-02T03:13:02.394Z,100135.71
2019-03-02T03:16:11.724Z,100130.11
2019-03-02T03:19:12.532Z,100129.52
2019-03-02T03:22:15.578Z,100129.52
2019-03-02T03:25:19.454Z,100124.40
2019-03-02T03:28:26.066Z,100113.44
2019-03-02T03:31:31.659Z,100115.19
2019-03-02T03:34:34.544Z,100116.20
2019-03-02T03:37:38.055Z,100114.70
2019-03-02T03:40:41.371Z,100119.03
2019-03-02T03:43:44.623Z,100113.81
2019-03-02T03:46:47.869Z,100117.81
2019-03-02T03:49:51.374Z,100109.48
2019-03-02T03:52:55.207Z,100110.84
2019-03-02T03:56:03.664Z,100107.78
2019-03-02T03:59:03.308Z,100104.99
2019-03-02T04:02:06.537Z,100103.83
2019-03-02T04:05:10.400Z,100099.83
2019-03-02T04:08:13.679Z,100101.15
2019-03-02T04:11:16.684Z,100099.02
2019-03-02T04:14:23.447Z,100096.66
2019-03-02T04:17:24.881Z,100091.55
2019-03-02T04:20:35.421Z,100087.55
2019-03-02T04:23:38.684Z,100086.72
2019-03-02T04:26:41.634Z,100086.62
2019-03-02T04:29:49.897Z,100084.91
2019-03-02T04:32:51.355Z,100088.88
2019-03-02T04:35:54.909Z,100084.53
2019-03-02T04:38:57.865Z,100097.47
2019-03-02T04:42:02.328Z,100101.64
2019-03-02T04:45:05.989Z,100090.72
2019-03-02T04:48:09.373Z,100090.67
2019-03-02T04:51:12.624Z,100086.88
2019-03-02T04:54:15.632Z,100093.62
2019-03-02T04:57:18.591Z,100079.80
2019-03-02T05:00:21.825Z,100069.86
2019-03-02T05:03:25.012Z,100062.01
2019-03-02T05:06:27.950Z,100060.02
2019-03-02T05:09:30.913Z,100064.75
2019-03-02T05:12:34.529Z,100065.66
2019-03-02T05:15:37.796Z,100066.15
2019-03-02T05:18:40.751Z,100068.41
2019-03-02T05:21:44.393Z,100060.95
2019-03-02T05:24:48.443Z,100061.13
2019-03-02T05:27:52.040Z,100059.82
2019-03-02T05:30:55.310Z,100063.28
2019-03-02T05:34:00.713Z,100060.16
2019-03-02T05:37:03.930Z,100060.11
2019-03-02T05:40:07.258Z,100058.27
2019-03-02T05:43:10.263Z,100052.66
2019-03-02T05:46:13.541Z,100055.33
2019-03-02T05:49:18.504Z,100052.66
2019-03-02T05:52:21.873Z,100048.81
2019-03-02T05:55:25.522Z,100054.45
2019-03-02T05:58:30.382Z,100049.20
2019-03-02T06:01:36.758Z,100058.36
2019-03-02T06:04:39.793Z,100057.00
2019-03-02T06:07:43.555Z,100054.02
2019-03-02T06:10:47.057Z,100057.67
2019-03-02T06:13:50.308Z,100056.75
2019-03-02T06:16:53.831Z,100055.34
2019-03-02T06:20:00.245Z,100052.66
2019-03-02T06:23:03.382Z,100054.52
2019-03-02T06:26:06.640Z,100059.23
2019-03-02T06:29:10.448Z,100058.50
2019-03-02T06:32:13.414Z,100022.20
2019-03-02T06:35:16.374Z,100058.80
2019-03-02T06:38:19.717Z,100057.54
2019-03-02T06:41:23.002Z,100061.03
2019-03-02T06:44:26.273Z,100062.74
2019-03-02T06:47:29.935Z,100060.11
2019-03-02T06:50:35.705Z,100056.99
2019-03-02T06:53:39.365Z,100054.36
2019-03-02T06:56:42.607Z,100048.66
2019-03-02T06:59:46.162Z,100046.47
2019-03-02T07:02:49.220Z,100038.62
2019-03-02T07:05:52.571Z,100039.89
2019-03-02T07:08:55.614Z,100038.03
2019-03-02T07:11:59.197Z,100042.03
2019-03-02T07:15:05.071Z,100034.57
2019-03-02T07:18:27.289Z,100017.86
2019-03-02T07:21:30.262Z,100014.08
2019-03-02T07:24:33.592Z,100012.36
2019-03-02T07:27:36.578Z,100004.03
2019-03-02T07:30:40.811Z,100001.67
2019-03-02T07:33:44.852Z,99995.60
2019-03-02T07:36:48.072Z,99983.81
2019-03-02T07:39:51.668Z,99976.41
2019-03-02T07:42:55.228Z,99979.53
2019-03-02T07:45:58.454Z,99975.76
2019-03-02T07:49:01.694Z,99981.56
2019-03-02T07:52:04.652Z,99980.30
2019-03-02T07:55:08.654Z,99981.19
2019-03-02T07:58:12.932Z,99977.67
2019-03-02T08:01:16.703Z,99981.95
2019-03-02T08:04:20.992Z,99987.59
2019-03-02T08:07:24.329Z,99978.88
2019-03-02T08:10:27.329Z,99975.69
2019-03-02T08:13:32.733Z,99985.34
2019-03-02T08:16:37.786Z,99983.97
2019-03-02T08:19:40.645Z,99991.81
2019-03-02T08:22:46.233Z,99985.77
2019-03-02T08:25:49.187Z,99991.30
2019-03-02T08:28:52.564Z,99988.17
2019-03-02T08:31:55.867Z,100004.96
2019-03-02T08:34:58.842Z,100004.19
2019-03-02T08:38:05.419Z,100003.19
2019-03-02T08:41:07.827Z,100009.48
2019-03-02T08:44:10.756Z,100001.51
2019-03-02T08:47:14.033Z,99996.31
2019-03-02T08:50:17.905Z,100006.39
2019-03-02T08:53:22.503Z,100009.52
2019-03-02T08:56:25.795Z,100009.11
2019-03-02T08:59:28.984Z,100009.20
2019-03-02T09:02:32.827Z,100008.27
2019-03-02T09:05:49.078Z,100015.61
2019-03-02T09:08:41.620Z,100012.67
2019-03-02T09:11:45.779Z,100024.64
2019-03-02T09:14:50.106Z,100022.89
2019-03-02T09:17:54.246Z,100025.40
2019-03-02T09:20:58.230Z,100020.58
2019-03-02T09:24:01.609Z,100022.32
2019-03-02T09:27:04.824Z,100018.80
2019-03-02T09:30:12.240Z,100013.91
2019-03-02T09:33:15.280Z,100007.47
2019-03-02T09:36:18.226Z,100007.03
2019-03-02T09:39:21.178Z,100001.70
2019-03-02T09:42:24.466Z,100005.57
2019-03-02T09:45:27.443Z,100008.08
2019-03-02T09:48:30.746Z,100000.27
2019-03-02T09:51:33.688Z,100005.14
2019-03-02T09:54:37.828Z,99998.86
2019-03-02T09:57:41.307Z,99993.98
2019-03-02T10:00:45.950Z,99996.78
2019-03-02T10:03:49.201Z,99991.17
2019-03-02T10:06:52.687Z,99981.73
2019-03-02T10:09:55.669Z,99983.44
2019-03-02T10:12:59.052Z,99986.94
2019-03-02T10:16:04.511Z,99991.25
2019-03-02T10:19:07.168Z,99986.92
2019-03-02T10:22:10.412Z,99990.30
2019-03-02T10:25:13.559Z,99983.73
2019-03-02T10:28:17.655Z,99977.05
2019-03-02T10:31:20.621Z,99976.08
2019-03-02T10:34:24.847Z,99978.13
2019-03-02T10:37:28.087Z,99977.63
2019-03-02T10:40:31.328Z,99977.55
2019-03-02T10:43:34.856Z,99969.80
2019-03-02T10:46:38.166Z,99956.92
2019-03-02T10:49:41.122Z,99953.67
2019-03-02T10:52:48.958Z,99947.60
2019-03-02T10:55:51.767Z,99952.69
2019-03-02T10:58:54.819Z,99961.25
2019-03-02T11:01:57.777Z,99948.42
2019-03-02T11:05:21.063Z,99950.80
2019-03-02T11:09:04.145Z,99946.52
2019-03-02T11:12:18.388Z,99937.91
2019-03-02T11:15:32.761Z,99933.70
2019-03-02T11:19:11.360Z,99943.49
2019-03-02T11:22:22.869Z,99942.13
2019-03-02T11:25:40.877Z,99930.66
2019-03-02T11:28:48.934Z,99926.36
2019-03-02T11:32:06.833Z,99915.34
2019-03-02T11:35:29.671Z,99910.73
2019-03-02T11:38:52.819Z,99901.97
2019-03-02T11:42:30.293Z,99895.91
2019-03-02T11:45:54.046Z,99888.69
2019-03-02T11:49:29.702Z,99882.03
2019-03-02T11:52:44.915Z,99883.50
2019-03-02T11:56:06.552Z,99875.75
2019-03-02T11:59:25.933Z,99874.34
2019-03-02T12:02:39.303Z,99872.63
2019-03-02T12:06:17.328Z,99873.89
2019-03-02T12:10:01.008Z,99866.73
2019-03-02T12:13:27.713Z,99860.63
2019-03-02T12:16:47.000Z,99860.86
2019-03-02T12:20:03.495Z,99866.11
2019-03-02T12:23:34.044Z,99858.94
2019-03-02T12:26:47.418Z,99861.58
2019-03-02T12:30:09.206Z,99855.59
2019-03-02T12:33:25.587Z,99847.09
2019-03-02T12:36:49.226Z,99848.59
2019-03-02T12:40:03.586Z,99842.82
2019-03-02T12:43:24.178Z,99837.95
2019-03-02T12:47:05.357Z,99835.17
2019-03-02T12:50:23.109Z,99821.75
2019-03-02T12:53:42.356Z,99827.65
2019-03-02T12:57:04.951Z,99826.91
2019-03-02T13:00:41.363Z,99823.88
2019-03-02T13:04:05.654Z,99821.95
2019-03-02T13:07:15.819Z,99813.60
2019-03-02T13:10:28.268Z,99811.13
2019-03-02T13:14:09.183Z,99799.44
2019-03-02T13:17:37.248Z,99796.96
2019-03-02T13:20:59.625Z,99794.86
2019-03-02T13:24:24.122Z,99777.77
2019-03-02T13:28:01.039Z,99775.22
2019-03-02T13:31:26.333Z,99774.03
2019-03-02T13:34:55.139Z,99772.13
2019-03-02T13:38:04.800Z,99772.82
2019-03-02T13:41:30.695Z,99765.88
2019-03-02T13:44:47.775Z,99763.64
2019-03-02T13:48:13.948Z,99767.89
2019-03-02T13:51:37.640Z,99771.98
2019-03-02T13:55:18.791Z,99767.90
2019-03-02T13:58:54.906Z,99758.88
2019-03-02T14:02:21.396Z,99744.30
2019-03-02T14:05:43.938Z,99745.21
2019-03-02T14:09:09.531Z,99731.38
2019-03-02T14:12:28.025Z,99729.18
2019-03-02T14:16:00.920Z,99728.73
2019-03-02T14:19:26.204Z,99721.84
2019-03-02T14:22:58.399Z,99718.60
2019-03-02T14:26:27.311Z,99722.91
2019-03-02T14:29:53.226Z,99716.65
2019-03-02T14:33:05.428Z,99717.28
2019-03-02T14:36:26.501Z,99719.92
2019-03-02T14:39:38.178Z,99711.95
2019-03-02T14:42:53.651Z,99694.50
2019-03-02T14:46:23.528Z,99697.39
2019-03-02T14:49:52.132Z,99686.31
2019-03-02T14:53:13.543Z,99691.83
2019-03-02T14:56:34.696Z,99694.28
2019-03-02T14:59:56.022Z,99691.06
2019-03-02T15:03:25.116Z,99682.28
2019-03-02T15:06:34.221Z,99698.64
2019-03-02T15:09:45.524Z,99697.63
2019-03-02T15:13:00.640Z,99696.79
2019-03-02T15:16:32.458Z,99685.47
2019-03-02T15:19:57.291Z,99687.45
2019-03-02T15:23:07.352Z,99692.23
2019-03-02T15:26:28.347Z,99684.66
2019-03-02T15:30:03.076Z,99687.36
2019-03-02T15:33:46.706Z,99691.76
2019-03-02T15:37:14.310Z,99681.31
2019-03-02T15:40:34.493Z,99675.13
2019-03-02T15:43:59.929Z,99679.70
2019-03-02T15:47:20.401Z,99688.98
2019-03-02T15:50:35.359Z,99682.83
2019-03-02T15:53:52.921Z,99680.59
2019-03-02T15:57:16.273Z,99678.19
2019-03-02T16:00:30.028Z,99675.19
2019-03-02T16:03:45.260Z,99676.51
2019-03-02T16:07:06.216Z,99666.45
2019-03-02T16:10:43.595Z,99653.91
2019-03-02T16:14:07.513Z,99655.81
2019-03-02T16:17:39.928Z,99666.61
2019-03-02T16:21:04.723Z,99671.25
2019-03-02T16:24:33.324Z,99669.73
2019-03-02T16:27:51.481Z,99657.66
2019-03-02T16:31:14.308Z,99670.90
2019-03-02T16:34:33.267Z,99662.86
2019-03-02T16:38:08.041Z,99666.78
2019-03-02T16:41:21.895Z,99670.30
2019-03-02T16:44:56.681Z,99678.91
2019-03-02T16:48:07.368Z,99670.20
2019-03-02T16:51:30.535Z,99677.66
2019-03-02T16:54:51.801Z,99688.42
2019-03-02T16:58:00.996Z,99691.76
2019-03-02T17:01:15.755Z,99693.38
2019-03-02T17:04:39.470Z,99690.53
2019-03-02T17:08:08.241Z,99695.90
2019-03-02T17:11:22.548Z,99698.00
2019-03-02T17:14:46.010Z,99694.48
2019-03-02T17:18:09.191Z,99695.72
2019-03-02T17:21:30.936Z,99691.58
2019-03-02T17:25:00.375Z,99689.92
2019-03-02T17:28:26.281Z,99686.67
2019-03-02T17:31:39.423Z,99691.83
2019-03-02T17:35:07.659Z,99695.87
2019-03-02T17:38:33.473Z,99689.95
2019-03-02T17:41:54.947Z,99688.20
2019-03-02T17:45:14.475Z,99691.58
2019-03-02T17:48:28.328Z,99692.41
2019-03-02T17:52:03.352Z,99685.84
2019-03-02T17:55:29.722Z,99686.19
2019-03-02T17:58:42.613Z,99678.52
2019-03-02T18:02:08.987Z,99680.08
2019-03-02T18:05:31.120Z,99680.08
2019-03-02T18:08:44.853Z,99673.14
2019-03-02T18:12:17.298Z,99674.07
2019-03-02T18:15:38.534Z,99675.52
2019-03-02T18:18:41.516Z,99675.06
2019-03-02T18:21:45.151Z,99675.81
2019-03-02T18:24:48.512Z,99665.73
2019-03-02T18:27:51.562Z,99661.77
2019-03-02T18:30:57.427Z,99666.42
2019-03-02T18:34:07.165Z,99664.20
2019-03-02T18:37:10.705Z,99668.92
2019-03-02T18:40:14.054Z,99663.84
2019-03-02T18:43:17.940Z,99670.53
2019-03-02T18:46:21.185Z,99669.22
2019-03-02T18:49:39.577Z,99669.19
2019-03-02T18:52:53.771Z,99669.33
2019-03-02T18:55:57.909Z,99672.33
2019-03-02T18:59:04.292Z,99667.69
2019-03-02T19:02:11.506Z,99665.25
2019-03-02T19:05:13.214Z,99665.73
2019-03-02T19:08:16.822Z,99669.55
2019-03-02T19:11:20.187Z,99672.73
2019-03-02T19:14:23.185Z,99661.08
2019-03-02T19:17:26.206Z,99659.43
2019-03-02T19:20:30.053Z,99661.17
2019-03-02T19:23:33.160Z,99662.97
2019-03-02T19:26:36.386Z,99661.59
2019-03-02T19:29:39.347Z,99660.69
2019-03-02T19:32:42.629Z,99653.25
2019-03-02T19:35:45.879Z,99661.05
2019-03-02T19:38:49.149Z,99662.41
2019-03-02T19:41:52.639Z,99661.59
2019-03-02T19:44:55.616Z,99669.52
2019-03-02T19:47:58.999Z,99668.64
2019-03-02T19:51:02.545Z,99670.84
2019-03-02T19:54:05.913Z,99676.03
2019-03-02T19:57:09.193Z,99669.25
2019-03-02T20:00:21.192Z,99665.16
2019-03-02T20:03:24.255Z,99667.84
2019-03-02T20:06:27.872Z,99669.25
2019-03-02T20:09:31.492Z,99666.63
2019-03-02T20:12:34.592Z,99663.55
2019-03-02T20:15:37.892Z,99672.34
2019-03-02T20:18:41.272Z,99665.77
2019-03-02T20:21:44.352Z,99666.63
2019-03-02T20:24:50.145Z,99662.25
2019-03-02T20:27:53.399Z,99663.99
2019-03-02T20:30:56.921Z,99661.38
2019-03-02T20:33:59.968Z,99670.09
2019-03-02T20:37:03.268Z,99656.46
2019-03-02T20:40:09.924Z,99659.52
2019-03-02T20:43:13.097Z,99656.79
2019-03-02T20:46:18.430Z,99662.97
2019-03-02T20:49:21.680Z,99660.27
2019-03-02T20:52:25.037Z,99669.12
2019-03-02T20:55:28.385Z,99658.59
2019-03-02T20:58:31.702Z,99648.44
2019-03-02T21:01:35.494Z,99642.65
2019-03-02T21:04:38.701Z,99642.28
2019-03-02T21:07:41.788Z,99648.44
2019-03-02T21:10:45.230Z,99649.70
2019-03-02T21:13:48.729Z,99647.87
2019-03-02T21:16:53.462Z,99646.42
2019-03-02T21:19:56.862Z,99644.77
2019-03-02T21:23:00.502Z,99640.69
2019-03-02T21:26:05.995Z,99639.94
2019-03-02T21:29:10.070Z,99636.43
2019-03-02T21:32:13.024Z,99642.16
2019-03-02T21:35:16.270Z,99642.55
2019-03-02T21:38:19.907Z,99642.13
2019-03-02T21:41:23.479Z,99639.01
2019-03-02T21:44:26.456Z,99642.52
2019-03-02T21:47:29.791Z,99652.28
2019-03-02T21:50:33.158Z,99625.38
2019-03-02T21:53:36.101Z,99616.13
2019-03-02T21:56:39.656Z,99634.95
2019-03-02T21:59:43.610Z,99624.03
2019-03-02T22:02:46.985Z,99630.66
2019-03-02T22:05:49.955Z,99615.66
2019-03-02T22:08:52.911Z,99617.45
2019-03-02T22:11:56.899Z,99624.51
2019-03-02T22:15:00.456Z,99614.91
2019-03-02T22:18:03.627Z,99625.51
2019-03-02T22:21:06.592Z,99620.70
2019-03-02T22:24:09.815Z,99615.94
2019-03-02T22:27:12.795Z,99611.19
2019-03-02T22:30:19.076Z,99615.64
2019-03-02T22:33:22.640Z,99621.08
2019-03-02T22:36:27.168Z,99618.34
2019-03-02T22:39:30.464Z,99605.68
2019-03-02T22:42:34.154Z,99614.38
2019-03-02T22:45:37.365Z,99611.29
2019-03-02T22:48:40.621Z,99606.30
2019-03-02T22:51:43.578Z,99611.48
2019-03-02T22:54:46.805Z,99611.13
2019-03-02T22:57:50.367Z,99592.16
2019-03-02T23:01:31.333Z,99603.98
2019-03-02T23:04:34.515Z,99596.93
2019-03-02T23:07:37.795Z,99589.00
2019-03-02T23:10:40.802Z,99582.33
2019-03-02T23:13:44.039Z,99590.71
2019-03-02T23:16:47.272Z,99585.30
2019-03-02T23:19:50.281Z,99569.80
2019-03-02T23:22:53.244Z,99590.55
2019-03-02T23:25:56.191Z,99575.44
2019-03-02T23:28:59.437Z,99587.36
2019-03-02T23:32:02.476Z,99583.23
2019-03-02T23:35:05.429Z,99589.52
2019-03-02T23:38:08.819Z,99578.02
2019-03-02T23:41:12.390Z,99578.43
2019-03-02T23:44:15.644Z,99577.11
2019-03-02T23:47:18.584Z,99565.89
2019-03-02T23:50:22.119Z,99561.70
2019-03-02T23:53:25.442Z,99559.42
2019-03-02T23:56:28.997Z,99558.71
2019-03-02T23:59:32.611Z,99560.06
